createdAt,value
2022-11-12T00:00:59.697Z,6.30
2022-11-12T00:03:27.227Z,6.30
2022-11-12T00:05:54.467Z,6.30
2022-11-12T00:08:21.913Z,6.30
2022-11-12T00:10:49.416Z,6.30
2022-11-12T00:13:16.592Z,6.30
2022-11-12T00:15:43.792Z,6.30
2022-11-12T00:18:10.808Z,6.30
2022-11-12T00:20:37.723Z,6.30
2022-11-12T00:23:04.731Z,6.30
2022-11-12T00:25:31.925Z,6.30
2022-11-12T00:28:07.056Z,6.30
2022-11-12T00:30:34.378Z,6.30
2022-11-12T00:33:05.481Z,6.30
2022-11-12T00:35:33.373Z,6.30
2022-11-12T00:38:01.125Z,6.30
2022-11-12T00:40:28.963Z,6.20
2022-11-12T00:42:55.889Z,6.20
2022-11-12T00:45:22.983Z,6.30
2022-11-12T00:47:49.919Z,6.20
2022-11-12T00:50:17.219Z,6.30
2022-11-12T00:52:44.241Z,6.20
2022-11-12T00:55:11.286Z,6.20
2022-11-12T00:57:38.317Z,6.10
2022-11-12T01:00:07.087Z,6.10
2022-11-12T01:02:42.394Z,6.00
2022-11-12T01:05:09.557Z,6.00
2022-11-12T01:07:36.482Z,5.90
2022-11-12T01:10:04.296Z,5.90
2022-11-12T01:12:32.181Z,5.90
2022-11-12T01:14:59.551Z,5.90
2022-11-12T01:17:26.445Z,5.90
2022-11-12T01:19:53.426Z,5.90
2022-11-12T01:22:20.340Z,5.90
2022-11-12T01:24:47.274Z,5.90
2022-11-12T01:27:14.529Z,5.90
2022-11-12T01:29:41.417Z,5.90
2022-11-12T01:32:08.448Z,6.00
2022-11-12T01:34:35.534Z,6.00
2022-11-12T01:37:02.450Z,6.10
2022-11-12T01:39:29.371Z,6.10
2022-11-12T01:41:56.320Z,6.20
2022-11-12T01:44:27.039Z,6.20
2022-11-12T01:47:02.963Z,6.30
2022-11-12T01:49:52.588Z,6.30
2022-11-12T01:52:26.082Z,6.40
2022-11-12T01:54:56.983Z,6.50
2022-11-12T01:57:35.028Z,6.50
2022-11-12T02:00:10.360Z,6.50
2022-11-12T02:02:38.545Z,6.60
2022-11-12T02:05:08.863Z,6.70
2022-11-12T02:07:39.463Z,6.70
2022-11-12T02:10:07.825Z,6.80
2022-11-12T02:12:53.809Z,6.90
2022-11-12T02:15:20.763Z,6.90
2022-11-12T02:17:47.757Z,7.00
2022-11-12T02:20:15.444Z,7.00
2022-11-12T02:22:42.418Z,7.00
2022-11-12T02:25:16.902Z,7.00
2022-11-12T02:27:45.230Z,7.00
2022-11-12T02:30:12.818Z,7.00
2022-11-12T02:32:39.760Z,7.10
2022-11-12T02:35:07.279Z,7.10
2022-11-12T02:37:34.211Z,7.10
2022-11-12T02:40:01.213Z,7.10
2022-11-12T02:42:28.117Z,7.10
2022-11-12T02:44:55.146Z,7.10
2022-11-12T02:47:22.123Z,7.10
2022-11-12T02:49:49.092Z,7.20
2022-11-12T02:52:16.001Z,7.10
2022-11-12T02:54:43.011Z,7.20
2022-11-12T02:57:09.916Z,7.20
2022-11-12T02:59:36.804Z,7.20
2022-11-12T03:02:03.776Z,7.20
2022-11-12T03:04:30.686Z,7.30
2022-11-12T03:06:57.659Z,7.30
2022-11-12T03:09:24.646Z,7.20
2022-11-12T03:11:51.582Z,7.20
2022-11-12T03:14:18.797Z,7.20
2022-11-12T03:16:45.766Z,7.30
2022-11-12T03:19:12.699Z,7.30
2022-11-12T03:21:39.603Z,7.40
2022-11-12T03:24:06.782Z,7.30
2022-11-12T03:26:35.954Z,7.30
2022-11-12T03:29:03.971Z,7.30
2022-11-12T03:31:30.958Z,7.30
2022-11-12T03:33:57.878Z,7.30
2022-11-12T03:36:24.788Z,7.30
2022-11-12T03:38:51.796Z,7.30
2022-11-12T03:41:18.702Z,7.30
2022-11-12T03:43:45.624Z,7.30
2022-11-12T03:46:12.600Z,7.30
2022-11-12T03:48:39.602Z,7.40
2022-11-12T03:51:06.892Z,7.40
2022-11-12T03:53:33.844Z,7.40
2022-11-12T03:56:00.748Z,7.40
2022-11-12T03:58:27.970Z,7.40
2022-11-12T04:00:55.131Z,7.30
2022-11-12T04:03:22.130Z,7.40
2022-11-12T04:06:07.712Z,7.40
2022-11-12T04:08:37.586Z,7.50
2022-11-12T04:11:15.612Z,7.50
2022-11-12T04:13:45.720Z,7.60
2022-11-12T04:16:32.743Z,7.50
2022-11-12T04:19:19.912Z,7.50
2022-11-12T04:21:51.297Z,7.50
2022-11-12T04:24:42.557Z,7.50
2022-11-12T04:27:13.852Z,7.40
2022-11-12T04:29:59.693Z,7.40
2022-11-12T04:32:27.299Z,7.40
2022-11-12T04:34:55.292Z,7.40
2022-11-12T04:37:24.315Z,7.40
2022-11-12T04:39:52.247Z,7.40
2022-11-12T04:42:38.116Z,7.40
2022-11-12T04:45:10.116Z,7.50
2022-11-12T04:47:43.884Z,7.50
2022-11-12T04:50:17.554Z,7.50
2022-11-12T04:52:44.744Z,7.50
2022-11-12T04:55:11.836Z,7.40
2022-11-12T04:57:38.927Z,7.40
2022-11-12T05:00:06.563Z,7.30
2022-11-12T05:02:33.468Z,7.30
2022-11-12T05:05:00.446Z,7.30
2022-11-12T05:07:27.353Z,7.50
2022-11-12T05:09:54.261Z,7.50
2022-11-12T05:12:21.217Z,7.50
2022-11-12T05:14:48.187Z,7.50
2022-11-12T05:17:15.094Z,7.50
2022-11-12T05:19:42.036Z,7.60
2022-11-12T05:22:27.167Z,7.60
2022-11-12T05:24:57.940Z,7.60
2022-11-12T05:27:24.837Z,7.60
2022-11-12T05:29:51.773Z,7.60
2022-11-12T05:32:18.828Z,7.70
2022-11-12T05:34:45.808Z,7.70
2022-11-12T05:37:13.835Z,7.70
2022-11-12T05:39:40.954Z,7.70
2022-11-12T05:42:13.327Z,7.70
2022-11-12T05:44:40.932Z,7.70
2022-11-12T05:47:08.000Z,7.70
2022-11-12T05:49:34.903Z,7.90
2022-11-12T05:52:01.827Z,8.00
2022-11-12T05:54:28.834Z,8.20
2022-11-12T05:56:55.728Z,8.30
2022-11-12T05:59:22.696Z,8.40
2022-11-12T06:01:49.661Z,8.30
2022-11-12T06:04:17.173Z,8.30
2022-11-12T06:06:44.784Z,8.20
2022-11-12T06:09:11.917Z,8.20
2022-11-12T06:11:39.058Z,8.20
2022-11-12T06:14:06.517Z,8.10
2022-11-12T06:16:33.741Z,8.20
2022-11-12T06:19:00.691Z,8.30
2022-11-12T06:21:28.017Z,8.30
2022-11-12T06:23:58.766Z,8.30
2022-11-12T06:26:28.094Z,8.40
2022-11-12T06:28:55.428Z,8.40
2022-11-12T06:31:22.866Z,8.40
2022-11-12T06:33:50.359Z,8.40
2022-11-12T06:36:19.676Z,8.40
2022-11-12T06:38:46.761Z,8.50
2022-11-12T06:41:15.063Z,8.50
2022-11-12T06:43:42.493Z,8.50
2022-11-12T06:46:13.996Z,8.50
2022-11-12T06:48:41.966Z,8.60
2022-11-12T06:51:20.313Z,8.60
2022-11-12T06:53:48.068Z,8.80
2022-11-12T06:56:15.633Z,8.90
2022-11-12T06:58:42.892Z,8.80
2022-11-12T07:01:17.491Z,8.80
2022-11-12T07:03:44.932Z,8.80
2022-11-12T07:06:20.240Z,8.90
2022-11-12T07:08:49.307Z,9.00
2022-11-12T07:11:18.201Z,9.10
2022-11-12T07:13:46.215Z,9.20
2022-11-12T07:16:18.509Z,9.30
2022-11-12T07:18:47.357Z,9.30
2022-11-12T07:21:17.535Z,9.30
2022-11-12T07:23:44.788Z,9.30
2022-11-12T07:26:21.916Z,9.30
2022-11-12T07:28:50.718Z,9.30
2022-11-12T07:31:19.850Z,9.30
2022-11-12T07:33:49.033Z,9.30
2022-11-12T07:36:18.657Z,9.40
2022-11-12T07:38:46.137Z,9.40
2022-11-12T07:41:21.625Z,9.40
2022-11-12T07:43:52.100Z,9.50
2022-11-12T07:46:25.322Z,9.60
2022-11-12T07:48:53.269Z,9.60
2022-11-12T07:51:22.690Z,9.70
2022-11-12T07:53:53.752Z,9.60
2022-11-12T07:56:26.904Z,9.70
2022-11-12T07:58:54.097Z,9.80
2022-11-12T08:01:39.040Z,9.90
2022-11-12T08:04:09.510Z,10.00
2022-11-12T08:06:37.443Z,9.90
2022-11-12T08:09:07.089Z,9.90
2022-11-12T08:11:34.637Z,9.90
2022-11-12T08:14:02.319Z,9.80
2022-11-12T08:16:29.875Z,10.00
2022-11-12T08:18:56.868Z,9.90
2022-11-12T08:21:23.809Z,10.00
2022-11-12T08:23:50.710Z,10.00
2022-11-12T08:26:20.399Z,10.10
2022-11-12T08:28:47.421Z,10.20
2022-11-12T08:31:16.801Z,10.20
2022-11-12T08:33:43.936Z,10.40
2022-11-12T08:36:13.290Z,10.30
2022-11-12T08:38:40.979Z,10.50
2022-11-12T08:41:11.132Z,10.40
2022-11-12T08:43:40.551Z,10.30
2022-11-12T08:46:07.742Z,10.30
2022-11-12T08:48:35.570Z,10.30
2022-11-12T08:51:04.887Z,10.30
2022-11-12T08:53:32.328Z,10.50
2022-11-12T08:55:59.630Z,10.50
2022-11-12T08:58:27.599Z,10.50
2022-11-12T09:00:55.265Z,10.50
2022-11-12T09:03:25.105Z,10.40
2022-11-12T09:05:53.247Z,10.40
2022-11-12T09:08:23.024Z,10.50
2022-11-12T09:10:51.065Z,10.80
2022-11-12T09:13:18.943Z,10.90
2022-11-12T09:15:47.163Z,11.10
2022-11-12T09:18:16.446Z,11.30
2022-11-12T09:20:43.626Z,11.40
2022-11-12T09:23:15.510Z,11.50
2022-11-12T09:25:42.776Z,11.50
2022-11-12T09:28:15.533Z,11.40
2022-11-12T09:30:46.783Z,11.30
2022-11-12T09:33:23.517Z,11.40
2022-11-12T09:35:51.581Z,11.20
2022-11-12T09:38:19.464Z,11.20
2022-11-12T09:41:16.296Z,11.30
2022-11-12T09:43:55.527Z,11.40
2022-11-12T09:46:28.375Z,11.00
2022-11-12T09:49:14.177Z,10.90
2022-11-12T09:52:06.982Z,11.10
2022-11-12T09:54:36.067Z,11.20
2022-11-12T09:57:03.294Z,11.20
2022-11-12T09:59:33.182Z,11.40
2022-11-12T10:02:20.323Z,11.70
2022-11-12T10:04:50.504Z,11.80
2022-11-12T10:07:42.675Z,12.10
2022-11-12T10:10:39.035Z,12.10
2022-11-12T10:13:13.257Z,12.00
2022-11-12T10:16:17.003Z,12.00
2022-11-12T10:18:49.407Z,12.10
2022-11-12T10:21:41.101Z,12.50
2022-11-12T10:24:12.151Z,12.60
2022-11-12T10:26:40.584Z,12.80
2022-11-12T10:29:32.310Z,13.10
2022-11-12T10:32:02.658Z,13.20
2022-11-12T10:34:31.347Z,13.30
2022-11-12T10:37:03.664Z,13.10
2022-11-12T10:39:39.245Z,12.90
2022-11-12T10:42:10.373Z,12.90
2022-11-12T10:44:38.820Z,13.00
2022-11-12T10:47:28.190Z,13.10
2022-11-12T10:50:03.846Z,13.30
2022-11-12T10:52:30.891Z,13.70
2022-11-12T10:55:16.843Z,13.50
2022-11-12T10:57:44.449Z,13.70
2022-11-12T11:00:21.444Z,13.80
2022-11-12T11:02:53.783Z,14.10
2022-11-12T11:05:33.799Z,14.30
2022-11-12T11:08:01.788Z,14.10
2022-11-12T11:10:30.262Z,14.10
2022-11-12T11:13:09.526Z,13.90
2022-11-12T11:15:37.973Z,13.70
2022-11-12T11:18:05.265Z,13.60
2022-11-12T11:20:43.660Z,13.30
2022-11-12T11:23:19.480Z,13.20
2022-11-12T11:25:52.122Z,13.30
2022-11-12T11:28:39.938Z,13.30
2022-11-12T11:31:21.911Z,13.30
2022-11-12T11:34:17.784Z,13.20
2022-11-12T11:36:55.105Z,13.10
2022-11-12T11:39:43.709Z,13.10
2022-11-12T11:42:32.145Z,13.20
2022-11-12T11:45:34.574Z,13.40
2022-11-12T11:48:23.584Z,13.40
2022-11-12T11:51:13.623Z,13.50
2022-11-12T11:54:07.747Z,13.50
2022-11-12T11:56:42.784Z,13.50
2022-11-12T11:59:46.118Z,13.50
2022-11-12T12:02:13.140Z,13.60
2022-11-12T12:05:06.246Z,13.60
2022-11-12T12:07:47.476Z,13.40
2022-11-12T12:11:01.757Z,13.50
2022-11-12T12:13:51.640Z,13.60
2022-11-12T12:16:37.180Z,13.60
2022-11-12T12:19:45.396Z,13.60
2022-11-12T12:22:24.454Z,13.70
2022-11-12T12:25:03.665Z,13.70
2022-11-12T12:27:35.996Z,13.70
2022-11-12T12:30:04.761Z,13.70
2022-11-12T12:32:43.782Z,13.70
2022-11-12T12:35:31.842Z,13.60
2022-11-12T12:38:12.726Z,13.50
2022-11-12T12:41:10.835Z,13.50
2022-11-12T12:43:47.426Z,13.50
2022-11-12T12:46:17.363Z,13.60
2022-11-12T12:48:47.104Z,13.50
2022-11-12T12:51:14.214Z,13.50
2022-11-12T12:53:41.214Z,13.40
2022-11-12T12:56:30.878Z,13.30
2022-11-12T12:59:03.592Z,13.30
2022-11-12T13:01:34.402Z,13.30
2022-11-12T13:04:11.876Z,13.50
2022-11-12T13:06:46.002Z,13.40
2022-11-12T13:09:12.937Z,13.30
2022-11-12T13:12:01.397Z,13.30
2022-11-12T13:14:37.051Z,13.20
2022-11-12T13:17:12.089Z,13.10
2022-11-12T13:20:08.417Z,13.10
2022-11-12T13:22:41.118Z,13.10
2022-11-12T13:25:10.791Z,13.10
2022-11-12T13:27:43.540Z,13.10
2022-11-12T13:30:13.436Z,13.10
2022-11-12T13:32:51.916Z,13.20
2022-11-12T13:35:30.701Z,13.20
2022-11-12T13:38:11.566Z,13.20
2022-11-12T13:41:19.654Z,13.10
2022-11-12T13:43:47.549Z,13.20
2022-11-12T13:46:34.469Z,13.20
2022-11-12T13:49:23.848Z,13.30
2022-11-12T13:51:53.352Z,13.30
2022-11-12T13:54:38.096Z,13.30
2022-11-12T13:57:15.920Z,13.30
2022-11-12T13:59:47.766Z,13.20
2022-11-12T14:02:25.155Z,13.20
2022-11-12T14:04:54.296Z,13.10
2022-11-12T14:07:27.271Z,13.10
2022-11-12T14:10:04.183Z,13.00
2022-11-12T14:12:58.756Z,13.00
2022-11-12T14:16:00.572Z,12.90
2022-11-12T14:19:05.154Z,12.90
2022-11-12T14:21:32.316Z,12.80
2022-11-12T14:24:01.860Z,12.80
2022-11-12T14:26:43.121Z,12.70
2022-11-12T14:29:19.412Z,12.70
2022-11-12T14:31:46.736Z,12.70
2022-11-12T14:34:27.801Z,12.70
2022-11-12T14:36:56.211Z,12.70
2022-11-12T14:39:25.162Z,12.70
2022-11-12T14:41:53.016Z,12.70
2022-11-12T14:44:32.552Z,12.70
2022-11-12T14:46:59.974Z,12.60
2022-11-12T14:49:48.716Z,12.60
2022-11-12T14:52:18.797Z,12.70
2022-11-12T14:54:50.631Z,12.60
2022-11-12T14:57:28.650Z,12.50
2022-11-12T15:00:16.353Z,12.40
2022-11-12T15:02:55.728Z,12.20
2022-11-12T15:05:27.898Z,12.10
2022-11-12T15:08:05.415Z,12.00
2022-11-12T15:10:38.114Z,11.90
2022-11-12T15:13:15.754Z,11.80
2022-11-12T15:16:08.154Z,11.80
2022-11-12T15:18:42.145Z,11.70
2022-11-12T15:21:14.821Z,11.80
2022-11-12T15:23:49.474Z,11.70
2022-11-12T15:26:27.787Z,11.80
2022-11-12T15:28:59.694Z,11.80
2022-11-12T15:31:30.073Z,11.80
2022-11-12T15:34:35.736Z,11.80
2022-11-12T15:37:07.708Z,11.80
2022-11-12T15:39:44.118Z,11.70
2022-11-12T15:42:37.808Z,11.70
2022-11-12T15:45:13.539Z,11.70
2022-11-12T15:47:40.532Z,11.70
2022-11-12T15:50:13.624Z,11.60
2022-11-12T15:52:41.386Z,11.50
2022-11-12T15:55:09.739Z,11.50
2022-11-12T15:57:44.152Z,11.50
2022-11-12T16:00:18.193Z,11.50
2022-11-12T16:02:48.197Z,11.50
2022-11-12T16:05:16.978Z,11.50
2022-11-12T16:07:44.010Z,11.50
2022-11-12T16:10:15.981Z,11.40
2022-11-12T16:12:49.564Z,11.30
2022-11-12T16:15:19.688Z,11.30
2022-11-12T16:17:48.113Z,11.20
2022-11-12T16:20:18.587Z,11.20
2022-11-12T16:22:45.539Z,11.30
2022-11-12T16:25:12.447Z,11.30
2022-11-12T16:27:40.199Z,11.20
2022-11-12T16:30:15.114Z,11.10
2022-11-12T16:32:42.483Z,11.10
2022-11-12T16:35:09.934Z,11.00
2022-11-12T16:37:39.608Z,11.00
2022-11-12T16:40:11.851Z,11.00
2022-11-12T16:42:45.544Z,11.00
2022-11-12T16:45:14.028Z,11.00
2022-11-12T16:47:48.174Z,11.00
2022-11-12T16:50:17.900Z,11.20
2022-11-12T16:52:44.935Z,11.20
2022-11-12T16:55:11.927Z,11.20
2022-11-12T16:57:38.939Z,11.10
2022-11-12T17:00:07.545Z,11.20
2022-11-12T17:02:39.255Z,11.30
2022-11-12T17:05:21.122Z,11.30
2022-11-12T17:07:48.925Z,11.40
2022-11-12T17:10:16.975Z,11.40
2022-11-12T17:12:47.989Z,11.40
2022-11-12T17:15:14.984Z,11.30
2022-11-12T17:17:42.032Z,11.30
2022-11-12T17:20:10.019Z,11.30
2022-11-12T17:22:37.658Z,11.20
2022-11-12T17:25:05.888Z,11.20
2022-11-12T17:27:33.042Z,11.20
2022-11-12T17:30:00.001Z,11.10
2022-11-12T17:32:27.403Z,11.10
2022-11-12T17:34:54.308Z,11.20
2022-11-12T17:37:21.687Z,11.20
2022-11-12T17:39:48.724Z,11.10
2022-11-12T17:42:15.814Z,11.10
2022-11-12T17:44:42.985Z,11.10
2022-11-12T17:47:10.059Z,11.00
2022-11-12T17:49:37.771Z,11.00
2022-11-12T17:52:05.080Z,11.00
2022-11-12T17:54:32.176Z,11.00
2022-11-12T17:56:59.347Z,11.10
2022-11-12T17:59:27.608Z,11.10
2022-11-12T18:01:56.925Z,11.20
2022-11-12T18:04:24.075Z,11.20
2022-11-12T18:06:51.632Z,11.10
2022-11-12T18:09:18.663Z,11.00
2022-11-12T18:11:49.329Z,10.90
2022-11-12T18:14:17.031Z,10.90
2022-11-12T18:16:46.376Z,10.90
2022-11-12T18:19:13.420Z,10.80
2022-11-12T18:21:40.925Z,10.80
2022-11-12T18:24:14.020Z,10.80
2022-11-12T18:26:41.348Z,10.70
2022-11-12T18:29:11.415Z,10.70
2022-11-12T18:31:38.348Z,10.50
2022-11-12T18:34:07.462Z,10.50
2022-11-12T18:36:37.467Z,10.50
2022-11-12T18:39:05.243Z,10.50
2022-11-12T18:41:33.944Z,10.40
2022-11-12T18:44:03.566Z,10.40
2022-11-12T18:46:31.414Z,10.40
2022-11-12T18:48:58.562Z,10.50
2022-11-12T18:51:26.002Z,10.50
2022-11-12T18:53:54.585Z,10.50
2022-11-12T18:56:22.335Z,10.50
2022-11-12T18:58:49.388Z,10.40
2022-11-12T19:01:20.978Z,10.40
2022-11-12T19:03:52.109Z,10.30
2022-11-12T19:06:19.617Z,10.30
2022-11-12T19:08:46.673Z,10.30
2022-11-12T19:11:15.456Z,10.40
2022-11-12T19:13:42.810Z,10.40
2022-11-12T19:16:14.204Z,10.40
2022-11-12T19:18:42.079Z,10.40
2022-11-12T19:21:13.148Z,10.40
2022-11-12T19:23:41.395Z,10.40
2022-11-12T19:26:11.210Z,10.40
2022-11-12T19:28:38.618Z,10.50
2022-11-12T19:31:13.090Z,10.50
2022-11-12T19:33:40.211Z,10.50
2022-11-12T19:36:13.387Z,10.50
2022-11-12T19:38:40.292Z,10.40
2022-11-12T19:41:13.372Z,10.50
2022-11-12T19:43:46.106Z,10.50
2022-11-12T19:46:13.041Z,10.50
2022-11-12T19:48:47.303Z,10.60
2022-11-12T19:51:14.417Z,10.60
2022-11-12T19:53:47.214Z,10.60
2022-11-12T19:56:21.599Z,10.50
2022-11-12T19:58:49.441Z,10.40
2022-11-12T20:01:19.002Z,10.40
2022-11-12T20:03:46.604Z,10.40
2022-11-12T20:06:25.672Z,10.50
2022-11-12T20:08:53.174Z,10.50
2022-11-12T20:11:22.393Z,10.50
2022-11-12T20:13:53.229Z,10.50
2022-11-12T20:16:25.189Z,10.50
2022-11-12T20:18:54.620Z,10.50
2022-11-12T20:21:22.952Z,10.40
2022-11-12T20:23:50.556Z,10.40
2022-11-12T20:26:17.957Z,10.40
2022-11-12T20:28:45.628Z,10.40
2022-11-12T20:31:14.850Z,10.40
2022-11-12T20:33:42.752Z,10.40
2022-11-12T20:36:12.960Z,10.40
2022-11-12T20:38:41.600Z,10.50
2022-11-12T20:41:18.784Z,10.50
2022-11-12T20:43:45.751Z,10.60
2022-11-12T20:46:13.804Z,10.50
2022-11-12T20:48:43.549Z,10.50
2022-11-12T20:51:28.676Z,10.40
2022-11-12T20:54:00.025Z,10.30
2022-11-12T20:56:29.996Z,10.30
2022-11-12T20:58:58.332Z,10.30
2022-11-12T21:01:27.078Z,10.30
2022-11-12T21:03:54.525Z,10.30
2022-11-12T21:06:24.548Z,10.20
2022-11-12T21:08:51.840Z,10.20
2022-11-12T21:11:21.498Z,10.30
2022-11-12T21:13:48.751Z,10.30
2022-11-12T21:16:15.773Z,10.30
2022-11-12T21:18:43.987Z,10.30
2022-11-12T21:21:16.811Z,10.30
2022-11-12T21:23:44.893Z,10.30
2022-11-12T21:26:17.602Z,10.30
2022-11-12T21:28:52.793Z,10.20
2022-11-12T21:31:21.425Z,10.20
2022-11-12T21:33:58.301Z,10.20
2022-11-12T21:36:27.927Z,10.20
2022-11-12T21:38:55.081Z,10.10
2022-11-12T21:41:24.372Z,10.10
2022-11-12T21:43:51.627Z,10.00
2022-11-12T21:46:30.040Z,10.00
2022-11-12T21:48:58.033Z,9.90
2022-11-12T21:51:27.378Z,10.00
2022-11-12T21:54:06.325Z,10.00
2022-11-12T21:56:34.285Z,10.10
2022-11-12T21:59:01.806Z,10.10
2022-11-12T22:01:32.677Z,10.20
2022-11-12T22:04:00.123Z,10.10
2022-11-12T22:06:29.089Z,10.10
2022-11-12T22:08:57.348Z,10.10
2022-11-12T22:11:25.496Z,10.10
2022-11-12T22:13:52.430Z,10.10
2022-11-12T22:16:21.634Z,10.10
2022-11-12T22:18:50.761Z,10.10
2022-11-12T22:21:20.288Z,10.10
2022-11-12T22:23:47.425Z,10.10
2022-11-12T22:26:16.622Z,10.20
2022-11-12T22:28:43.632Z,10.10
2022-11-12T22:31:11.895Z,10.20
2022-11-12T22:33:39.655Z,10.10
2022-11-12T22:36:09.468Z,10.10
2022-11-12T22:38:39.174Z,10.10
2022-11-12T22:41:09.044Z,10.20
2022-11-12T22:43:39.293Z,10.20
2022-11-12T22:46:17.778Z,10.20
2022-11-12T22:48:45.127Z,10.30
2022-11-12T22:51:17.481Z,10.30
2022-11-12T22:53:44.772Z,10.20
2022-11-12T22:56:15.349Z,10.30
2022-11-12T22:58:44.638Z,10.30
2022-11-12T23:01:29.439Z,10.30
2022-11-12T23:03:58.923Z,10.20
2022-11-12T23:06:26.939Z,10.20
2022-11-12T23:08:55.063Z,10.30
2022-11-12T23:11:22.382Z,10.30
2022-11-12T23:13:49.560Z,10.30
2022-11-12T23:16:19.551Z,10.30
2022-11-12T23:18:46.890Z,10.40
2022-11-12T23:21:17.917Z,10.40
2022-11-12T23:23:45.237Z,10.30
2022-11-12T23:26:15.288Z,10.30
2022-11-12T23:28:42.268Z,10.20
2022-11-12T23:31:18.640Z,10.10
2022-11-12T23:33:50.617Z,10.00
2022-11-12T23:36:18.292Z,10.10
2022-11-12T23:38:45.299Z,10.20
2022-11-12T23:41:14.820Z,10.30
2022-11-12T23:43:41.829Z,10.40
2022-11-12T23:46:09.049Z,10.20
2022-11-12T23:48:35.981Z,10.20
2022-11-12T23:51:09.902Z,10.10
2022-11-12T23:53:38.009Z,10.10
2022-11-12T23:56:06.919Z,10.20
2022-11-12T23:58:33.949Z,10.30
